createdAt,value
2022-09-26T00:01:18.411Z,100.00
2022-09-26T00:03:48.442Z,100.00
2022-09-26T00:06:17.967Z,100.00
2022-09-26T00:08:46.638Z,100.00
2022-09-26T00:11:16.052Z,100.00
2022-09-26T00:13:43.497Z,100.00
2022-09-26T00:16:11.638Z,100.00
2022-09-26T00:18:39.539Z,100.00
2022-09-26T00:21:12.944Z,100.00
2022-09-26T00:23:41.834Z,100.00
2022-09-26T00:26:09.559Z,100.00
2022-09-26T00:28:36.783Z,100.00
2022-09-26T00:31:05.708Z,100.00
2022-09-26T00:33:32.714Z,100.00
2022-09-26T00:35:59.438Z,100.00
2022-09-26T00:38:26.268Z,100.00
2022-09-26T00:40:53.611Z,100.00
2022-09-26T00:43:35.153Z,100.00
2022-09-26T00:46:43.320Z,100.00
2022-09-26T00:49:35.983Z,100.00
2022-09-26T00:52:07.691Z,100.00
2022-09-26T00:54:36.249Z,100.00
2022-09-26T00:57:07.697Z,100.00
2022-09-26T00:59:39.263Z,100.00
2022-09-26T01:02:06.327Z,100.00
2022-09-26T01:04:36.782Z,100.00
2022-09-26T01:07:08.622Z,100.00
2022-09-26T01:09:35.850Z,100.00
2022-09-26T01:12:04.071Z,100.00
2022-09-26T01:14:33.294Z,100.00
2022-09-26T01:17:00.457Z,100.00
2022-09-26T01:19:54.235Z,100.00
2022-09-26T01:22:23.492Z,100.00
2022-09-26T01:25:08.910Z,100.00
2022-09-26T01:27:39.001Z,100.00
2022-09-26T01:30:21.578Z,100.00
2022-09-26T01:32:57.755Z,100.00
2022-09-26T01:35:48.965Z,100.00
2022-09-26T01:38:48.844Z,100.00
2022-09-26T01:41:15.447Z,100.00
2022-09-26T01:43:51.606Z,100.00
2022-09-26T01:46:34.301Z,100.00
2022-09-26T01:49:14.510Z,100.00
2022-09-26T01:52:08.873Z,100.00
2022-09-26T01:54:41.897Z,100.00
2022-09-26T01:57:14.550Z,100.00
2022-09-26T01:59:47.098Z,100.00
2022-09-26T02:02:20.020Z,100.00
2022-09-26T02:04:52.763Z,100.00
2022-09-26T02:07:25.178Z,100.00
2022-09-26T02:09:59.355Z,100.00
2022-09-26T02:12:32.984Z,100.00
2022-09-26T02:15:04.929Z,100.00
2022-09-26T02:17:38.936Z,100.00
2022-09-26T02:20:11.240Z,100.00
2022-09-26T02:22:39.021Z,100.00
2022-09-26T02:25:06.336Z,100.00
2022-09-26T02:27:33.247Z,100.00
2022-09-26T02:30:00.091Z,100.00
2022-09-26T02:32:32.433Z,100.00
2022-09-26T02:35:00.559Z,100.00
2022-09-26T02:37:31.061Z,100.00
2022-09-26T02:39:58.158Z,100.00
2022-09-26T02:42:36.010Z,100.00
2022-09-26T02:45:22.417Z,100.00
2022-09-26T02:48:23.992Z,100.00
2022-09-26T02:51:00.864Z,100.00
2022-09-26T02:53:57.795Z,100.00
2022-09-26T02:56:43.682Z,100.00
2022-09-26T02:59:29.646Z,100.00
2022-09-26T03:02:15.859Z,100.00
2022-09-26T03:04:51.597Z,100.00
2022-09-26T03:07:28.601Z,100.00
2022-09-26T03:09:58.227Z,100.00
2022-09-26T03:12:27.974Z,100.00
2022-09-26T03:14:58.713Z,100.00
2022-09-26T03:17:28.336Z,100.00
2022-09-26T03:20:17.201Z,100.00
2022-09-26T03:22:45.049Z,100.00
2022-09-26T03:25:17.019Z,100.00
2022-09-26T03:27:45.069Z,100.00
2022-09-26T03:30:12.701Z,100.00
2022-09-26T03:32:40.698Z,100.00
2022-09-26T03:35:08.957Z,100.00
2022-09-26T03:37:37.400Z,100.00
2022-09-26T03:40:13.850Z,100.00
2022-09-26T03:42:40.678Z,100.00
2022-09-26T03:45:10.544Z,100.00
2022-09-26T03:47:38.470Z,100.00
2022-09-26T03:50:06.689Z,100.00
2022-09-26T03:52:33.430Z,100.00
2022-09-26T03:55:00.137Z,100.00
2022-09-26T03:57:26.954Z,100.00
2022-09-26T03:59:55.310Z,100.00
2022-09-26T04:02:22.716Z,100.00
2022-09-26T04:04:49.586Z,100.00
2022-09-26T04:07:16.273Z,100.00
2022-09-26T04:09:42.976Z,100.00
2022-09-26T04:12:09.609Z,100.00
2022-09-26T04:14:36.426Z,100.00
2022-09-26T04:17:03.209Z,100.00
2022-09-26T04:19:29.859Z,100.00
2022-09-26T04:21:56.963Z,100.00
2022-09-26T04:24:23.598Z,100.00
2022-09-26T04:26:50.282Z,100.00
2022-09-26T04:29:17.347Z,100.00
2022-09-26T04:31:44.290Z,100.00
2022-09-26T04:34:11.679Z,100.00
2022-09-26T04:36:38.756Z,100.00
2022-09-26T04:39:05.718Z,100.00
2022-09-26T04:41:32.830Z,100.00
2022-09-26T04:44:01.176Z,100.00
2022-09-26T04:46:30.908Z,100.00
2022-09-26T04:49:00.175Z,100.00
2022-09-26T04:51:28.156Z,100.00
2022-09-26T04:53:55.783Z,100.00
2022-09-26T04:56:24.639Z,100.00
2022-09-26T04:58:51.793Z,100.00
2022-09-26T05:01:20.924Z,100.00
2022-09-26T05:03:48.037Z,100.00
2022-09-26T05:06:17.595Z,100.00
2022-09-26T05:08:46.913Z,100.00
2022-09-26T05:11:17.671Z,100.00
2022-09-26T05:13:45.117Z,100.00
2022-09-26T05:16:14.612Z,100.00
2022-09-26T05:18:41.704Z,100.00
2022-09-26T05:21:08.735Z,100.00
2022-09-26T05:23:55.582Z,100.00
2022-09-26T05:26:31.162Z,100.00
2022-09-26T05:29:08.367Z,100.00
2022-09-26T05:31:38.099Z,100.00
2022-09-26T05:34:12.200Z,100.00
2022-09-26T05:36:42.866Z,100.00
2022-09-26T05:39:29.790Z,100.00
2022-09-26T05:41:58.393Z,100.00
2022-09-26T05:44:25.890Z,100.00
2022-09-26T05:46:52.712Z,100.00
2022-09-26T05:49:19.612Z,86.64
2022-09-26T05:51:46.677Z,73.27
2022-09-26T05:54:13.603Z,66.48
2022-09-26T05:56:40.415Z,58.01
2022-09-26T05:59:07.149Z,58.99
2022-09-26T06:01:34.669Z,55.83
2022-09-26T06:04:03.092Z,51.60
2022-09-26T06:06:30.467Z,50.63
2022-09-26T06:08:57.399Z,48.11
2022-09-26T06:11:31.054Z,46.18
2022-09-26T06:14:00.973Z,45.13
2022-09-26T06:16:28.450Z,44.40
2022-09-26T06:18:55.909Z,41.31
2022-09-26T06:21:23.333Z,38.88
2022-09-26T06:23:50.067Z,37.90
2022-09-26T06:26:21.915Z,36.51
2022-09-26T06:28:51.608Z,39.37
2022-09-26T06:31:19.950Z,41.58
2022-09-26T06:33:53.557Z,38.08
2022-09-26T06:36:20.408Z,35.82
2022-09-26T06:38:47.199Z,35.76
2022-09-26T06:41:16.770Z,35.06
2022-09-26T06:43:47.617Z,33.22
2022-09-26T06:46:15.468Z,32.57
2022-09-26T06:48:42.713Z,32.76
2022-09-26T06:51:13.805Z,33.34
2022-09-26T06:53:40.726Z,32.61
2022-09-26T06:56:07.490Z,31.14
2022-09-26T06:58:34.620Z,31.05
2022-09-26T07:01:01.983Z,30.64
2022-09-26T07:03:29.709Z,29.61
2022-09-26T07:05:57.003Z,31.56
2022-09-26T07:08:43.435Z,32.63
2022-09-26T07:11:32.745Z,32.22
2022-09-26T07:14:00.346Z,33.54
2022-09-26T07:16:27.421Z,34.77
2022-09-26T07:18:55.157Z,35.13
2022-09-26T07:21:21.794Z,32.97
2022-09-26T07:23:48.671Z,33.18
2022-09-26T07:26:15.310Z,32.01
2022-09-26T07:28:41.956Z,30.37
2022-09-26T07:31:08.776Z,29.66
2022-09-26T07:33:35.441Z,29.51
2022-09-26T07:36:05.438Z,28.40
2022-09-26T07:38:32.589Z,27.98
2022-09-26T07:41:01.340Z,31.00
2022-09-26T07:43:53.637Z,29.80
2022-09-26T07:46:34.100Z,28.05
2022-09-26T07:49:19.267Z,30.08
2022-09-26T07:51:46.303Z,35.95
2022-09-26T07:54:13.038Z,32.54
2022-09-26T07:56:40.425Z,33.67
2022-09-26T07:59:07.046Z,37.90
2022-09-26T08:01:34.473Z,36.39
2022-09-26T08:04:01.729Z,34.25
2022-09-26T08:06:33.399Z,31.94
2022-09-26T08:09:00.036Z,28.99
2022-09-26T08:11:27.802Z,34.59
2022-09-26T08:13:55.356Z,33.00
2022-09-26T08:16:25.334Z,34.62
2022-09-26T08:18:53.607Z,31.53
2022-09-26T08:21:22.145Z,30.90
2022-09-26T08:23:48.915Z,29.58
2022-09-26T08:26:16.488Z,33.63
2022-09-26T08:28:43.738Z,32.67
2022-09-26T08:31:10.472Z,32.20
2022-09-26T08:33:38.916Z,35.89
2022-09-26T08:36:11.351Z,35.44
2022-09-26T08:38:38.952Z,36.69
2022-09-26T08:41:24.754Z,33.87
2022-09-26T08:44:00.199Z,35.29
2022-09-26T08:46:49.661Z,36.15
2022-09-26T08:49:21.583Z,39.25
2022-09-26T08:51:51.942Z,38.91
2022-09-26T08:54:33.804Z,39.99
2022-09-26T08:57:07.375Z,42.62
2022-09-26T08:59:38.245Z,40.37
2022-09-26T09:02:13.059Z,40.93
2022-09-26T09:05:08.827Z,40.85
2022-09-26T09:07:35.552Z,38.01
2022-09-26T09:10:07.625Z,43.74
2022-09-26T09:12:40.319Z,42.16
2022-09-26T09:15:32.412Z,40.21
2022-09-26T09:18:24.500Z,41.85
2022-09-26T09:21:13.504Z,43.92
2022-09-26T09:24:09.992Z,44.76
2022-09-26T09:29:43.064Z,47.61
2022-09-26T09:32:17.059Z,45.96
2022-09-26T09:34:50.214Z,43.13
2022-09-26T09:37:37.843Z,45.67
2022-09-26T09:40:12.005Z,43.30
2022-09-26T09:42:43.502Z,45.02
2022-09-26T09:45:24.393Z,44.46
2022-09-26T09:47:51.104Z,45.21
2022-09-26T09:50:44.862Z,45.58
2022-09-26T09:53:32.769Z,47.65
2022-09-26T09:56:37.187Z,48.75
2022-09-26T09:59:18.845Z,51.57
2022-09-26T10:01:54.789Z,48.73
2022-09-26T10:04:30.518Z,48.57
2022-09-26T10:06:57.215Z,48.18
2022-09-26T10:09:37.053Z,48.24
2022-09-26T10:12:30.750Z,48.45
2022-09-26T10:15:03.669Z,46.89
2022-09-26T10:17:31.395Z,48.39
2022-09-26T10:19:59.170Z,49.34
2022-09-26T10:22:45.119Z,51.42
2022-09-26T10:25:21.341Z,50.16
2022-09-26T10:27:53.812Z,50.26
2022-09-26T10:30:26.055Z,52.80
2022-09-26T10:32:56.818Z,55.11
2022-09-26T10:35:30.028Z,53.11
2022-09-26T10:38:01.101Z,54.21
2022-09-26T10:40:45.423Z,54.67
2022-09-26T10:43:32.025Z,50.94
2022-09-26T10:46:17.655Z,52.12
2022-09-26T10:48:48.370Z,52.69
2022-09-26T10:51:31.905Z,53.05
2022-09-26T10:54:08.758Z,52.67
2022-09-26T10:56:45.456Z,52.32
2022-09-26T10:59:15.130Z,53.64
2022-09-26T11:01:46.160Z,52.88
2022-09-26T11:04:39.842Z,53.40
2022-09-26T11:07:10.767Z,55.69
2022-09-26T11:09:38.463Z,55.63
2022-09-26T11:12:26.283Z,56.76
2022-09-26T11:14:59.091Z,57.61
2022-09-26T11:17:52.293Z,53.95
2022-09-26T11:20:29.121Z,53.93
2022-09-26T11:23:11.532Z,52.84
2022-09-26T11:25:59.568Z,55.50
2022-09-26T11:28:52.489Z,55.96
2022-09-26T11:31:35.251Z,59.33
2022-09-26T11:34:04.613Z,57.54
2022-09-26T11:37:04.642Z,60.11
2022-09-26T11:39:59.649Z,64.46
2022-09-26T11:43:00.097Z,67.94
2022-09-26T11:45:39.887Z,65.52
2022-09-26T11:48:32.558Z,67.95
2022-09-26T11:51:21.449Z,71.45
2022-09-26T11:54:10.705Z,75.21
2022-09-26T11:56:57.773Z,76.29
2022-09-26T11:59:46.867Z,82.88
2022-09-26T12:02:51.712Z,78.17
2022-09-26T12:05:40.354Z,77.79
2022-09-26T12:08:19.412Z,80.91
2022-09-26T12:10:58.670Z,73.89
2022-09-26T12:13:48.544Z,75.02
2022-09-26T12:16:22.112Z,80.42
2022-09-26T12:18:59.570Z,76.50
2022-09-26T12:22:10.888Z,71.45
2022-09-26T12:24:54.770Z,67.22
2022-09-26T12:27:25.714Z,69.60
2022-09-26T12:30:02.611Z,69.32
2022-09-26T12:32:53.172Z,69.92
2022-09-26T12:35:29.808Z,71.53
2022-09-26T12:38:21.276Z,73.38
2022-09-26T12:41:20.118Z,70.39
2022-09-26T12:43:47.237Z,68.94
2022-09-26T12:46:32.307Z,66.23
2022-09-26T12:49:27.164Z,67.99
2022-09-26T12:51:59.212Z,65.91
2022-09-26T12:54:28.511Z,66.04
2022-09-26T12:57:05.772Z,66.76
2022-09-26T12:59:44.666Z,66.24
2022-09-26T13:02:14.169Z,67.74
2022-09-26T13:05:11.444Z,69.34
2022-09-26T13:08:16.012Z,67.40
2022-09-26T13:10:53.653Z,72.21
2022-09-26T13:13:40.127Z,64.79
2022-09-26T13:16:49.143Z,62.86
2022-09-26T13:19:23.857Z,62.28
2022-09-26T13:22:01.794Z,62.29
2022-09-26T13:24:39.876Z,59.60
2022-09-26T13:27:20.205Z,59.85
2022-09-26T13:29:55.595Z,60.16
2022-09-26T13:32:35.946Z,57.42
2022-09-26T13:35:19.685Z,59.31
2022-09-26T13:38:11.616Z,61.38
2022-09-26T13:41:09.637Z,64.45
2022-09-26T13:44:07.703Z,62.21
2022-09-26T13:47:03.475Z,62.83
2022-09-26T13:49:51.175Z,63.57
2022-09-26T13:52:40.308Z,65.97
2022-09-26T13:55:10.677Z,64.83
2022-09-26T13:57:52.505Z,66.09
2022-09-26T14:00:31.703Z,64.20
2022-09-26T14:03:11.000Z,69.00
2022-09-26T14:05:47.899Z,70.30
2022-09-26T14:08:39.675Z,67.61
2022-09-26T14:11:15.406Z,71.62
2022-09-26T14:13:42.181Z,70.94
2022-09-26T14:16:27.270Z,72.02
2022-09-26T14:19:00.115Z,74.73
2022-09-26T14:21:39.775Z,74.87
2022-09-26T14:24:21.471Z,76.63
2022-09-26T14:27:11.317Z,77.86
2022-09-26T14:29:47.119Z,85.63
2022-09-26T14:32:20.526Z,81.08
2022-09-26T14:34:59.977Z,80.42
2022-09-26T14:37:26.893Z,78.04
2022-09-26T14:40:12.368Z,78.57
2022-09-26T14:42:45.114Z,83.72
2022-09-26T14:45:16.668Z,82.94
2022-09-26T14:47:50.319Z,82.43
2022-09-26T14:50:26.141Z,83.12
2022-09-26T14:52:56.080Z,85.59
2022-09-26T14:55:24.181Z,84.23
2022-09-26T14:57:53.524Z,84.88
2022-09-26T15:00:40.731Z,85.47
2022-09-26T15:03:14.888Z,83.99
2022-09-26T15:05:43.442Z,82.61
2022-09-26T15:08:28.998Z,84.44
2022-09-26T15:11:00.115Z,85.22
2022-09-26T15:13:45.196Z,87.98
2022-09-26T15:16:37.902Z,85.61
2022-09-26T15:19:12.839Z,88.02
2022-09-26T15:21:44.118Z,88.92
2022-09-26T15:24:32.364Z,87.65
2022-09-26T15:27:10.920Z,89.91
2022-09-26T15:29:46.396Z,90.65
2022-09-26T15:32:25.453Z,89.49
2022-09-26T15:34:53.651Z,93.15
2022-09-26T15:37:23.990Z,89.25
2022-09-26T15:39:51.743Z,90.82
2022-09-26T15:42:41.846Z,95.45
2022-09-26T15:45:39.800Z,94.44
2022-09-26T15:48:26.315Z,92.06
2022-09-26T15:50:56.189Z,97.00
2022-09-26T15:53:34.664Z,96.19
2022-09-26T15:56:18.720Z,97.62
2022-09-26T15:59:13.242Z,96.73
2022-09-26T16:01:42.907Z,96.34
2022-09-26T16:04:16.099Z,97.78
2022-09-26T16:06:53.014Z,99.15
2022-09-26T16:09:40.273Z,100.00
2022-09-26T16:12:16.189Z,98.26
2022-09-26T16:15:04.181Z,97.31
2022-09-26T16:17:49.081Z,99.51
2022-09-26T16:20:16.223Z,99.29
2022-09-26T16:22:51.818Z,100.00
2022-09-26T16:25:18.854Z,100.00
2022-09-26T16:27:47.595Z,100.00
2022-09-26T16:30:27.151Z,100.00
2022-09-26T16:33:15.384Z,100.00
2022-09-26T16:35:47.498Z,100.00
2022-09-26T16:38:31.426Z,99.55
2022-09-26T16:41:31.336Z,100.00
2022-09-26T16:44:36.918Z,100.00
2022-09-26T16:47:07.531Z,100.00
2022-09-26T16:49:40.363Z,99.39
2022-09-26T16:52:10.519Z,100.00
2022-09-26T16:54:37.258Z,100.00
2022-09-26T16:57:05.854Z,100.00
2022-09-26T16:59:44.817Z,100.00
2022-09-26T17:02:11.780Z,100.00
2022-09-26T17:04:38.616Z,100.00
2022-09-26T17:07:11.770Z,100.00
2022-09-26T17:09:41.379Z,100.00
2022-09-26T17:12:13.915Z,100.00
2022-09-26T17:14:42.656Z,100.00
2022-09-26T17:17:21.779Z,100.00
2022-09-26T17:19:56.798Z,100.00
2022-09-26T17:22:26.740Z,100.00
2022-09-26T17:24:53.495Z,100.00
2022-09-26T17:27:32.713Z,100.00
2022-09-26T17:30:01.609Z,100.00
2022-09-26T17:32:36.159Z,100.00
2022-09-26T17:35:12.312Z,100.00
2022-09-26T17:37:39.499Z,100.00
2022-09-26T17:40:13.645Z,100.00
2022-09-26T17:42:40.596Z,100.00
2022-09-26T17:45:07.658Z,100.00
2022-09-26T17:47:34.312Z,100.00
2022-09-26T17:50:01.102Z,100.00
2022-09-26T17:52:31.599Z,100.00
2022-09-26T17:55:07.650Z,100.00
2022-09-26T17:57:37.197Z,100.00
2022-09-26T18:00:10.213Z,100.00
2022-09-26T18:02:43.968Z,100.00
2022-09-26T18:05:40.240Z,100.00
2022-09-26T18:08:26.948Z,100.00
2022-09-26T18:10:57.950Z,100.00
2022-09-26T18:13:28.672Z,100.00
2022-09-26T18:15:56.335Z,100.00
2022-09-26T18:18:25.154Z,100.00
2022-09-26T18:20:53.714Z,100.00
2022-09-26T18:23:23.898Z,100.00
2022-09-26T18:25:53.440Z,100.00
2022-09-26T18:28:23.057Z,100.00
2022-09-26T18:30:57.790Z,100.00
2022-09-26T18:33:27.908Z,100.00
2022-09-26T18:35:55.215Z,100.00
2022-09-26T18:38:22.392Z,100.00
2022-09-26T18:40:53.004Z,100.00
2022-09-26T18:43:23.179Z,100.00
2022-09-26T18:45:52.174Z,100.00
2022-09-26T18:48:34.643Z,100.00
2022-09-26T18:51:01.583Z,100.00
2022-09-26T18:53:30.543Z,100.00
2022-09-26T18:56:15.988Z,100.00
2022-09-26T18:58:42.810Z,100.00
2022-09-26T19:01:15.352Z,100.00
2022-09-26T19:03:47.044Z,100.00
2022-09-26T19:06:20.965Z,100.00
2022-09-26T19:08:50.198Z,100.00
2022-09-26T19:11:22.718Z,100.00
2022-09-26T19:13:51.659Z,100.00
2022-09-26T19:16:19.078Z,100.00
2022-09-26T19:18:46.502Z,100.00
2022-09-26T19:21:20.726Z,100.00
2022-09-26T19:23:49.253Z,100.00
2022-09-26T19:26:31.959Z,100.00
2022-09-26T19:28:59.596Z,100.00
2022-09-26T19:31:27.271Z,100.00
2022-09-26T19:33:54.778Z,100.00
2022-09-26T19:36:21.921Z,100.00
2022-09-26T19:38:48.785Z,100.00
2022-09-26T19:41:16.125Z,100.00
2022-09-26T19:43:43.067Z,100.00
2022-09-26T19:46:20.958Z,100.00
2022-09-26T19:48:47.837Z,100.00
2022-09-26T19:51:17.073Z,100.00
2022-09-26T19:53:43.905Z,100.00
2022-09-26T19:56:10.589Z,100.00
2022-09-26T19:58:37.337Z,100.00
2022-09-26T20:01:14.884Z,100.00
2022-09-26T20:03:42.941Z,100.00
2022-09-26T20:06:14.253Z,100.00
2022-09-26T20:08:41.361Z,100.00
2022-09-26T20:11:08.061Z,100.00
2022-09-26T20:13:53.913Z,100.00
2022-09-26T20:16:20.815Z,100.00
2022-09-26T20:18:51.655Z,100.00
2022-09-26T20:21:21.788Z,100.00
2022-09-26T20:23:48.974Z,100.00
2022-09-26T20:26:17.311Z,100.00
2022-09-26T20:28:44.694Z,100.00
2022-09-26T20:31:31.681Z,100.00
2022-09-26T20:34:00.191Z,100.00
2022-09-26T20:36:32.309Z,100.00
2022-09-26T20:39:03.203Z,100.00
2022-09-26T20:41:34.302Z,100.00
2022-09-26T20:44:05.659Z,100.00
2022-09-26T20:46:36.540Z,100.00
2022-09-26T20:49:12.896Z,100.00
2022-09-26T20:51:39.936Z,100.00
2022-09-26T20:54:17.512Z,100.00
2022-09-26T20:56:44.419Z,100.00
2022-09-26T20:59:11.852Z,100.00
2022-09-26T21:01:38.613Z,100.00
2022-09-26T21:04:05.672Z,100.00
2022-09-26T21:06:35.096Z,100.00
2022-09-26T21:09:02.742Z,100.00
2022-09-26T21:11:29.384Z,100.00
2022-09-26T21:13:56.183Z,100.00
2022-09-26T21:16:23.040Z,100.00
2022-09-26T21:18:52.743Z,100.00
2022-09-26T21:21:30.157Z,100.00
2022-09-26T21:23:59.092Z,100.00
2022-09-26T21:26:28.128Z,100.00
2022-09-26T21:28:56.171Z,100.00
2022-09-26T21:31:27.247Z,100.00
2022-09-26T21:33:56.477Z,100.00
2022-09-26T21:36:24.244Z,100.00
2022-09-26T21:38:53.679Z,100.00
2022-09-26T21:41:20.512Z,100.00
2022-09-26T21:43:55.119Z,100.00
2022-09-26T21:46:21.948Z,100.00
2022-09-26T21:48:49.139Z,100.00
2022-09-26T21:51:16.039Z,100.00
2022-09-26T21:53:48.501Z,100.00
2022-09-26T21:56:25.849Z,100.00
2022-09-26T21:58:53.220Z,100.00
2022-09-26T22:01:20.583Z,100.00
2022-09-26T22:03:47.313Z,100.00
2022-09-26T22:06:13.994Z,100.00
2022-09-26T22:08:41.052Z,100.00
2022-09-26T22:11:14.166Z,100.00
2022-09-26T22:13:41.055Z,100.00
2022-09-26T22:16:14.518Z,100.00
2022-09-26T22:18:41.794Z,100.00
2022-09-26T22:21:10.865Z,100.00
2022-09-26T22:23:38.168Z,100.00
2022-09-26T22:26:05.536Z,100.00
2022-09-26T22:28:32.384Z,100.00
2022-09-26T22:31:04.373Z,100.00
2022-09-26T22:33:31.660Z,100.00
2022-09-26T22:35:58.398Z,100.00
2022-09-26T22:38:25.499Z,100.00
2022-09-26T22:41:00.244Z,100.00
2022-09-26T22:43:27.622Z,100.00
2022-09-26T22:46:01.328Z,100.00
2022-09-26T22:48:35.308Z,100.00
2022-09-26T22:51:04.001Z,100.00
2022-09-26T22:53:32.623Z,100.00
2022-09-26T22:56:05.376Z,100.00
2022-09-26T22:58:36.690Z,100.00
2022-09-26T23:01:06.130Z,100.00
2022-09-26T23:03:33.748Z,100.00
2022-09-26T23:06:00.838Z,100.00
2022-09-26T23:08:28.304Z,100.00
2022-09-26T23:10:55.872Z,100.00
2022-09-26T23:13:25.358Z,100.00
2022-09-26T23:15:53.047Z,100.00
2022-09-26T23:18:20.637Z,100.00
2022-09-26T23:20:47.873Z,100.00
2022-09-26T23:23:14.759Z,100.00
2022-09-26T23:25:49.146Z,100.00
2022-09-26T23:28:17.313Z,100.00
2022-09-26T23:30:44.533Z,100.00
2022-09-26T23:33:11.439Z,100.00
2022-09-26T23:35:38.981Z,100.00
2022-09-26T23:38:05.682Z,100.00
2022-09-26T23:40:32.983Z,100.00
2022-09-26T23:43:00.141Z,100.00
2022-09-26T23:45:27.162Z,100.00
2022-09-26T23:47:54.219Z,100.00
2022-09-26T23:50:21.219Z,100.00
2022-09-26T23:52:48.267Z,100.00
2022-09-26T23:55:15.103Z,100.00
2022-09-26T23:57:41.820Z,100.00
